Time;durP1;ratioP1;P1;durP2;ratioP2;P2;SDS_P1;SDS_P2;PMS_P1;PMS_P2;Temp;Humidity;BMP_temperature;BMP_pressure;BME280_temperature;BME280_humidity;BME280_pressure;Samples;Min_cycle;Max_cycle;Signal;HPM_P1;HPM_P2
2022/11/23 00:01:53;;;;;;;1999.90;999.90;;;;;;;4.31;100.00;96197.91;5103289;28;20111;-74
2022/11/23 00:04:19;;;;;;;1999.90;999.90;;;;;;;4.32;100.00;96205.72;5101590;28;20026;-73
2022/11/23 00:06:44;;;;;;;1999.90;999.90;;;;;;;4.29;100.00;96202.81;5106562;28;20366;-74
2022/11/23 00:09:11;;;;;;;1999.90;999.90;;;;;;;4.21;100.00;96198.88;5108074;28;20734;-74
2022/11/23 00:11:36;;;;;;;1999.90;999.90;;;;;;;4.14;100.00;96200.38;5100797;28;20027;-74
2022/11/23 00:14:01;;;;;;;1999.90;999.90;;;;;;;4.18;100.00;96210.31;5092096;28;20028;-73
2022/11/23 00:16:28;;;;;;;1999.90;999.90;;;;;;;4.19;100.00;96214.63;5092853;28;20500;-74
2022/11/23 00:18:56;;;;;;;1999.90;999.90;;;;;;;4.25;100.00;96212.63;5091663;28;20039;-74
2022/11/23 00:21:22;;;;;;;1999.90;999.90;;;;;;;4.22;100.00;96213.22;5091807;28;20032;-74
2022/11/23 00:23:48;;;;;;;1999.90;999.90;;;;;;;4.26;100.00;96217.72;5091720;28;20388;-74
2022/11/23 00:26:13;;;;;;;1999.90;999.90;;;;;;;4.16;100.00;96212.50;5091906;28;20103;-74
2022/11/23 00:28:39;;;;;;;1999.90;999.90;;;;;;;4.16;100.00;96223.34;5091534;28;20028;-74
2022/11/23 00:31:06;;;;;;;1999.90;999.90;;;;;;;4.18;100.00;96221.13;5091618;28;20388;-75
2022/11/23 00:33:32;;;;;;;1999.90;999.90;;;;;;;4.23;100.00;96221.03;5091653;28;20057;-74
2022/11/23 00:36:03;;;;;;;1999.90;999.90;;;;;;;4.20;100.00;96215.41;5091470;28;20024;-74
2022/11/23 00:38:28;;;;;;;1999.90;999.90;;;;;;;4.17;100.00;96221.41;5091112;28;20481;-74
2022/11/23 00:41:03;;;;;;;1999.90;999.90;;;;;;;4.25;100.00;96221.56;5091410;28;20085;-74
2022/11/23 00:43:29;;;;;;;1999.90;999.90;;;;;;;4.23;100.00;96221.03;5096248;28;20027;-74
2022/11/23 00:46:24;;;;;;;1999.90;999.90;;;;;;;4.32;100.00;96223.88;5111917;28;20038;-74
2022/11/23 00:48:52;;;;;;;1999.90;999.90;;;;;;;4.36;100.00;96226.75;5109365;28;20096;-74
2022/11/23 00:51:23;;;;;;;1999.90;999.90;;;;;;;4.29;100.00;96216.34;5111663;28;20076;-75
2022/11/23 00:53:49;;;;;;;1999.90;999.90;;;;;;;4.29;100.00;96224.47;5111667;28;20024;-74
2022/11/23 00:56:15;;;;;;;1999.90;999.90;;;;;;;4.36;100.00;96224.06;5111694;28;20418;-74
2022/11/23 00:58:40;;;;;;;1999.90;999.90;;;;;;;4.17;100.00;96224.91;5093686;28;20049;-74
2022/11/23 01:01:10;;;;;;;1999.90;999.90;;;;;;;4.09;100.00;96230.22;5111902;28;20036;-74
2022/11/23 01:03:38;;;;;;;1999.90;999.90;;;;;;;4.19;100.00;96235.47;5111699;28;20068;-74
2022/11/23 01:06:07;;;;;;;1999.90;999.90;;;;;;;4.15;100.00;96231.72;5111889;28;20485;-75
2022/11/23 01:08:32;;;;;;;1999.90;999.90;;;;;;;4.11;100.00;96234.22;5108379;28;20040;-74
2022/11/23 01:11:03;;;;;;;1999.90;999.90;;;;;;;4.05;100.00;96243.53;5104636;28;20024;-74
2022/11/23 01:13:29;;;;;;;1999.90;999.90;;;;;;;4.01;100.00;96230.91;5099319;28;20027;-74
2022/11/23 01:15:54;;;;;;;1999.90;999.90;;;;;;;3.95;100.00;96237.47;5099729;28;20023;-74
2022/11/23 01:18:20;;;;;;;1999.90;999.90;;;;;;;3.92;100.00;96246.19;5101486;28;20118;-74
2022/11/23 01:20:45;;;;;;;1999.90;999.90;;;;;;;3.93;100.00;96242.38;5101171;28;20016;-74
2022/11/23 01:23:10;;;;;;;1999.90;999.90;;;;;;;4.00;100.00;96242.81;5101194;28;20053;-81
2022/11/23 01:25:36;;;;;;;1999.90;999.90;;;;;;;3.99;100.00;96242.00;5101928;28;20372;-74
2022/11/23 01:28:01;;;;;;;1999.90;999.90;;;;;;;3.91;100.00;96245.41;5103741;28;20034;-75
2022/11/23 01:30:27;;;;;;;1999.90;999.90;;;;;;;4.01;100.00;96244.44;5098975;28;20024;-74
2022/11/23 01:32:52;;;;;;;1999.90;999.90;;;;;;;3.89;100.00;96247.56;5097852;28;20495;-73
2022/11/23 01:35:17;;;;;;;1999.90;999.90;;;;;;;3.64;100.00;96229.84;5097777;28;20462;-74
2022/11/23 01:37:43;;;;;;;1999.90;999.90;;;;;;;3.72;100.00;96252.72;5100502;28;20038;-74
2022/11/23 01:40:09;;;;;;;1999.90;999.90;;;;;;;3.73;100.00;96243.50;5099178;28;20070;-74
2022/11/23 01:42:56;;;;;;;1999.90;999.90;;;;;;;3.65;100.00;96252.28;5099460;28;20502;-74
2022/11/23 01:45:38;;;;;;;1999.90;999.90;;;;;;;3.65;100.00;96257.69;5100749;28;20476;-74
2022/11/23 01:48:12;;;;;;;1999.90;999.90;;;;;;;3.55;100.00;96252.44;5100723;28;20020;-74
2022/11/23 01:50:38;;;;;;;1999.90;999.90;;;;;;;3.41;100.00;96238.06;5100109;28;20028;-74
2022/11/23 01:53:04;;;;;;;1999.90;999.90;;;;;;;3.42;100.00;96253.97;5098161;28;20013;-74
2022/11/23 01:55:30;;;;;;;1999.90;999.90;;;;;;;3.45;100.00;96252.56;5101401;28;20066;-73
2022/11/23 01:57:55;;;;;;;1999.90;999.90;;;;;;;3.43;100.00;96252.06;5098612;28;20391;-73
2022/11/23 02:00:21;;;;;;;1999.90;999.90;;;;;;;3.40;100.00;96255.34;5099875;28;20020;-73
2022/11/23 02:03:06;;;;;;;1999.90;999.90;;;;;;;3.33;100.00;96255.72;5098346;28;20457;-73
2022/11/23 02:05:39;;;;;;;1999.90;999.90;;;;;;;3.30;100.00;96266.28;5099149;28;20024;-73
2022/11/23 02:08:06;;;;;;;1999.90;999.90;;;;;;;3.26;100.00;96270.69;5097856;28;20082;-72
2022/11/23 02:10:33;;;;;;;1999.90;999.90;;;;;;;3.26;100.00;96270.69;5097920;28;20031;-73
2022/11/23 02:13:02;;;;;;;1999.90;999.90;;;;;;;3.24;100.00;96262.84;5098162;28;20114;-73
2022/11/23 02:15:27;;;;;;;1999.90;999.90;;;;;;;3.20;100.00;96270.75;5098249;28;20034;-74
2022/11/23 02:17:53;;;;;;;1999.90;999.90;;;;;;;3.18;100.00;96283.75;5099335;28;20024;-73
2022/11/23 02:20:18;;;;;;;1999.90;999.90;;;;;;;3.22;100.00;96284.78;5099541;28;20028;-73
2022/11/23 02:23:06;;;;;;;1999.90;999.90;;;;;;;3.14;100.00;96282.69;5097800;28;20472;-73
2022/11/23 02:25:39;;;;;;;1999.90;999.90;;;;;;;3.13;100.00;96293.81;5070808;28;20032;-73
2022/11/23 02:28:05;;;;;;;1999.90;999.90;;;;;;;3.14;100.00;96288.09;5099868;28;20080;-73
2022/11/23 02:30:32;;;;;;;1999.90;999.90;;;;;;;3.07;100.00;96290.34;5096905;28;20028;-73
2022/11/23 02:32:57;;;;;;;1999.90;999.90;;;;;;;3.05;100.00;96287.13;5099635;28;20618;-73
2022/11/23 02:35:23;;;;;;;1999.90;999.90;;;;;;;3.08;100.00;96293.84;5097782;28;20065;-73
2022/11/23 02:37:50;;;;;;;1999.90;999.90;;;;;;;3.07;100.00;96303.06;5099944;28;20499;-74
2022/11/23 02:40:25;;;;;;;1999.90;999.90;;;;;;;3.06;100.00;96302.25;5102270;28;20388;-74
2022/11/23 02:42:51;;;;;;;1999.90;999.90;;;;;;;3.07;100.00;96314.66;5098752;28;20685;-74
2022/11/23 02:45:25;;;;;;;1999.90;999.90;;;;;;;3.03;100.00;96316.34;5106092;28;20032;-74
2022/11/23 02:47:50;;;;;;;1999.90;999.90;;;;;;;3.05;100.00;96318.72;5102568;28;20031;-73
2022/11/23 02:50:16;;;;;;;1999.90;999.90;;;;;;;3.00;100.00;96325.00;5102032;28;20384;-75
2022/11/23 02:52:41;;;;;;;1999.90;999.90;;;;;;;3.04;100.00;96327.91;5103328;28;20020;-74
2022/11/23 02:55:07;;;;;;;1999.90;999.90;;;;;;;2.99;100.00;96315.28;5101657;28;20027;-74
2022/11/23 02:57:32;;;;;;;1999.90;999.90;;;;;;;3.04;100.00;96328.72;5104284;28;20077;-74
2022/11/23 02:59:58;;;;;;;1999.90;999.90;;;;;;;3.03;100.00;96332.53;5101510;28;20050;-75
2022/11/23 03:02:23;;;;;;;1999.90;999.90;;;;;;;3.02;100.00;96339.03;5103849;28;20837;-74
2022/11/23 03:04:48;;;;;;;1999.90;999.90;;;;;;;3.05;100.00;96341.16;5102743;28;20027;-74
2022/11/23 03:07:14;;;;;;;1999.90;999.90;;;;;;;3.02;100.00;96347.13;5102999;28;20024;-73
2022/11/23 03:09:39;;;;;;;1999.90;999.90;;;;;;;3.04;100.00;96346.81;5082969;28;21149;-74
2022/11/23 03:12:04;;;;;;;1999.90;999.90;;;;;;;3.10;100.00;96349.19;5103070;28;20034;-73
2022/11/23 03:14:30;;;;;;;1999.90;999.90;;;;;;;3.05;100.00;96357.34;5101656;28;20414;-74
2022/11/23 03:16:55;;;;;;;1999.90;999.90;;;;;;;3.06;100.00;96356.28;5100579;28;20046;-74
2022/11/23 03:19:20;;;;;;;1999.90;999.90;;;;;;;3.06;100.00;96358.97;5102307;28;20030;-74
2022/11/23 03:21:46;;;;;;;1999.90;999.90;;;;;;;3.06;100.00;96364.38;5102229;28;20012;-74
2022/11/23 03:24:11;;;;;;;1999.90;999.90;;;;;;;2.99;100.00;96366.59;5082659;28;20024;-74
2022/11/23 03:26:36;;;;;;;1999.90;999.90;;;;;;;3.00;100.00;96370.91;5102803;28;20032;-74
2022/11/23 03:29:02;;;;;;;1999.90;999.90;;;;;;;3.02;100.00;96366.03;5083064;28;20016;-74
2022/11/23 03:31:27;;;;;;;1999.90;999.90;;;;;;;3.15;100.00;96378.03;5101705;28;20024;-74
2022/11/23 03:33:53;;;;;;;1999.90;999.90;;;;;;;3.07;100.00;96365.19;5105918;28;20032;-74
2022/11/23 03:36:18;;;;;;;1999.90;999.90;;;;;;;3.09;100.00;96374.59;5105191;28;20028;-74
2022/11/23 03:38:43;;;;;;;1999.90;999.90;;;;;;;3.08;100.00;96374.88;5103367;28;20016;-73
2022/11/23 03:41:09;;;;;;;1999.90;999.90;;;;;;;3.06;100.00;96369.78;5082856;28;20027;-73
2022/11/23 03:43:34;;;;;;;1999.90;999.90;;;;;;;3.04;100.00;96380.03;5102612;28;20019;-74
2022/11/23 03:45:59;;;;;;;1999.90;999.90;;;;;;;3.02;100.00;96374.13;5102602;28;20387;-74
2022/11/23 03:48:25;;;;;;;1999.90;999.90;;;;;;;3.08;100.00;96382.97;5101194;28;20062;-74
2022/11/23 03:50:50;;;;;;;1999.90;999.90;;;;;;;3.12;100.00;96379.44;5102659;28;20028;-74
2022/11/23 03:53:16;;;;;;;1999.90;999.90;;;;;;;3.16;100.00;96385.84;5100056;28;20028;-74
2022/11/23 03:55:41;;;;;;;1999.90;999.90;;;;;;;3.09;100.00;96388.09;5101564;28;20031;-74
2022/11/23 03:58:06;;;;;;;1999.90;999.90;;;;;;;3.15;100.00;96384.25;5102381;28;20396;-74
2022/11/23 04:00:32;;;;;;;1999.90;999.90;;;;;;;3.31;100.00;96394.88;5102549;28;20481;-74
2022/11/23 04:02:58;;;;;;;1999.90;999.90;;;;;;;3.31;100.00;96393.00;5101838;28;20028;-74
2022/11/23 04:05:24;;;;;;;1999.90;999.90;;;;;;;3.18;100.00;96394.47;5100664;28;20024;-74
2022/11/23 04:07:49;;;;;;;1999.90;999.90;;;;;;;3.16;100.00;96393.94;5102253;28;20044;-74
2022/11/23 04:10:16;;;;;;;1999.90;999.90;;;;;;;3.27;100.00;96391.13;5099494;28;20021;-73
2022/11/23 04:12:42;;;;;;;1999.90;999.90;;;;;;;3.27;100.00;96391.94;5102527;28;20485;-74
2022/11/23 04:15:07;;;;;;;1999.90;999.90;;;;;;;3.27;100.00;96391.94;5101839;28;20039;-75
2022/11/23 04:17:33;;;;;;;1999.90;999.90;;;;;;;3.23;100.00;96391.72;5102806;28;20034;-74
2022/11/23 04:19:58;;;;;;;1999.90;999.90;;;;;;;3.27;100.00;96396.53;5100534;28;20032;-74
2022/11/23 04:22:24;;;;;;;1999.90;999.90;;;;;;;3.20;100.00;96391.47;5104259;28;20024;-74
2022/11/23 04:24:49;;;;;;;1999.90;999.90;;;;;;;3.23;100.00;96397.13;5101252;28;20043;-74
2022/11/23 04:27:14;;;;;;;1999.90;999.90;;;;;;;3.28;100.00;96403.56;5096485;28;20555;-74
2022/11/23 04:29:40;;;;;;;1999.90;999.90;;;;;;;3.31;100.00;96398.41;5091311;28;20024;-75
2022/11/23 04:32:05;;;;;;;1999.90;999.90;;;;;;;3.42;100.00;96405.28;5091400;28;20051;-74
2022/11/23 04:34:30;;;;;;;1999.90;999.90;;;;;;;3.48;100.00;96404.13;5091641;28;20489;-74
2022/11/23 04:36:56;;;;;;;1999.90;999.90;;;;;;;3.41;100.00;96403.69;5091519;28;20755;-74
2022/11/23 04:39:21;;;;;;;1999.90;999.90;;;;;;;3.38;100.00;96406.16;5091382;28;20028;-74
2022/11/23 04:41:46;;;;;;;1999.90;999.90;;;;;;;3.28;100.00;96409.78;5091210;28;20111;-74
2022/11/23 04:44:12;;;;;;;1999.90;999.90;;;;;;;3.31;100.00;96408.41;5091446;28;20061;-74
2022/11/23 04:46:37;;;;;;;1999.90;999.90;;;;;;;3.37;100.00;96409.94;5091668;28;20051;-74
2022/11/23 04:49:02;;;;;;;1999.90;999.90;;;;;;;3.41;100.00;96413.69;5090709;28;20070;-74
2022/11/23 04:51:27;;;;;;;1999.90;999.90;;;;;;;3.42;100.00;96413.38;5095516;28;20020;-74
2022/11/23 04:53:53;;;;;;;1999.90;999.90;;;;;;;3.47;100.00;96423.34;5111594;28;20055;-74
2022/11/23 04:56:18;;;;;;;1999.90;999.90;;;;;;;3.51;100.00;96419.75;5112062;28;20126;-74
2022/11/23 04:58:44;;;;;;;1999.90;999.90;;;;;;;3.50;100.00;96428.19;5111722;28;20024;-74
2022/11/23 05:01:09;;;;;;;1999.90;999.90;;;;;;;3.67;100.00;96423.09;5110554;28;20016;-74
2022/11/23 05:03:34;;;;;;;1999.90;999.90;;;;;;;3.53;100.00;96423.00;5110472;28;20027;-74
2022/11/23 05:06:03;;;;;;;1999.90;999.90;;;;;;;3.48;100.00;96436.56;5110643;28;20024;-74
2022/11/23 05:08:31;;;;;;;1999.90;999.90;;;;;;;3.44;100.00;96419.31;5110393;28;20052;-75
2022/11/23 05:10:56;;;;;;;1999.90;999.90;;;;;;;3.51;100.00;96424.41;5110492;28;20016;-74
2022/11/23 05:13:22;;;;;;;1999.90;999.90;;;;;;;3.56;100.00;96425.13;5111536;28;20076;-74
2022/11/23 05:15:48;;;;;;;1999.90;999.90;;;;;;;3.66;100.00;96432.31;5110814;28;20031;-74
2022/11/23 05:18:13;;;;;;;1999.90;999.90;;;;;;;3.73;100.00;96430.03;5110770;28;20026;-75
2022/11/23 05:20:39;;;;;;;1999.90;999.90;;;;;;;3.69;100.00;96429.84;5111258;28;20456;-74
2022/11/23 05:23:05;;;;;;;1999.90;999.90;;;;;;;3.71;100.00;96434.94;5107827;28;20110;-74
2022/11/23 05:25:30;;;;;;;1999.90;999.90;;;;;;;3.81;100.00;96437.53;5109437;28;20027;-74
2022/11/23 05:27:55;;;;;;;1999.90;999.90;;;;;;;3.69;100.00;96442.56;5109649;28;20367;-74
2022/11/23 05:30:21;;;;;;;1999.90;999.90;;;;;;;3.67;100.00;96436.59;5110780;28;20028;-74
2022/11/23 05:32:47;;;;;;;1999.90;999.90;;;;;;;3.59;100.00;96446.19;5110219;28;20038;-75
2022/11/23 05:35:13;;;;;;;1999.90;999.90;;;;;;;3.74;100.00;96439.78;5104529;28;20031;-74
2022/11/23 05:37:38;;;;;;;1999.90;999.90;;;;;;;3.74;100.00;96442.47;5090544;28;20028;-74
2022/11/23 05:40:04;;;;;;;1999.90;999.90;;;;;;;3.67;100.00;96440.13;5097395;28;20357;-73
2022/11/23 05:42:30;;;;;;;1999.90;999.90;;;;;;;3.67;100.00;96452.81;5105704;28;20088;-75
2022/11/23 05:44:55;;;;;;;1999.90;999.90;;;;;;;3.63;100.00;96451.81;5111954;28;20092;-74
2022/11/23 05:47:20;;;;;;;1999.90;999.90;;;;;;;3.70;100.00;96449.53;5097750;28;20495;-75
2022/11/23 05:49:46;;;;;;;1999.90;999.90;;;;;;;3.60;100.00;96449.69;5090361;28;20032;-78
2022/11/23 05:52:11;;;;;;;1999.90;999.90;;;;;;;3.66;100.00;96454.75;5098662;28;20027;-74
2022/11/23 05:54:36;;;;;;;1999.90;999.90;;;;;;;3.70;100.00;96457.66;5110425;28;20035;-75
2022/11/23 05:57:02;;;;;;;1999.90;999.90;;;;;;;3.66;100.00;96459.34;5110387;28;20024;-75
2022/11/23 05:59:27;;;;;;;1999.90;999.90;;;;;;;3.68;100.00;96467.97;5110505;28;20054;-74
2022/11/23 06:01:53;;;;;;;1999.90;999.90;;;;;;;3.62;100.00;96466.41;5109956;28;20024;-74
2022/11/23 06:04:18;;;;;;;1999.90;999.90;;;;;;;3.59;100.00;96465.09;5110641;28;20476;-74
2022/11/23 06:06:43;;;;;;;1999.90;999.90;;;;;;;3.58;100.00;96468.88;5092132;28;20022;-73
2022/11/23 06:09:08;;;;;;;1999.90;999.90;;;;;;;3.51;100.00;96471.13;5109874;28;20082;-74
2022/11/23 06:11:34;;;;;;;1999.90;999.90;;;;;;;3.52;100.00;96472.75;5110475;28;20031;-74
2022/11/23 06:14:00;;;;;;;1999.90;999.90;;;;;;;3.56;100.00;96479.19;5104244;28;20024;-74
2022/11/23 06:16:25;;;;;;;1999.90;999.90;;;;;;;3.61;100.00;96472.91;5110558;28;20388;-74
2022/11/23 06:18:50;;;;;;;1999.90;999.90;;;;;;;3.64;100.00;96481.25;5112143;28;20024;-73
2022/11/23 06:21:16;;;;;;;1999.90;999.90;;;;;;;3.65;100.00;96482.06;5105522;28;20488;-73
2022/11/23 06:23:41;;;;;;;1999.90;999.90;;;;;;;3.61;100.00;96481.00;5096084;28;20027;-73
2022/11/23 06:26:06;;;;;;;1999.90;999.90;;;;;;;3.68;100.00;96495.00;5107675;28;20023;-74
2022/11/23 06:28:34;;;;;;;1999.90;999.90;;;;;;;3.74;100.00;96483.03;5102356;28;20054;-73
2022/11/23 06:31:05;;;;;;;1999.90;999.90;;;;;;;3.66;100.00;96492.59;5093845;28;20039;-73
2022/11/23 06:33:31;;;;;;;1999.90;999.90;;;;;;;3.67;100.00;96485.28;5108656;28;20110;-73
2022/11/23 06:35:58;;;;;;;1999.90;999.90;;;;;;;3.70;100.00;96498.22;5114070;28;20188;-75
2022/11/23 06:38:23;;;;;;;1999.90;999.90;;;;;;;3.72;100.00;96493.34;5114222;28;20496;-75
2022/11/23 06:40:49;;;;;;;1999.90;999.90;;;;;;;3.79;100.00;96501.88;5124969;28;20034;-80
2022/11/23 06:43:14;;;;;;;1999.90;999.90;;;;;;;3.85;100.00;96511.59;5126264;28;20027;-75
2022/11/23 06:45:40;;;;;;;1999.90;999.90;;;;;;;3.82;100.00;96508.66;5117790;28;20028;-75
2022/11/23 06:48:05;;;;;;;1999.90;999.90;;;;;;;3.82;100.00;96509.47;5114422;28;20023;-74
2022/11/23 06:50:31;;;;;;;1999.90;999.90;;;;;;;3.89;100.00;96503.66;5112222;28;20434;-75
2022/11/23 06:52:57;;;;;;;1999.90;999.90;;;;;;;3.94;100.00;96507.16;5107325;28;20016;-74
2022/11/23 06:55:25;;;;;;;1999.90;999.90;;;;;;;3.91;100.00;96515.84;5093940;28;20028;-74
2022/11/23 06:57:51;;;;;;;1999.90;999.90;;;;;;;3.97;100.00;96520.09;5093341;28;20028;-74
2022/11/23 07:00:17;;;;;;;1999.90;999.90;;;;;;;3.98;100.00;96527.09;5109580;28;20035;-74
2022/11/23 07:02:43;;;;;;;1999.90;999.90;;;;;;;3.98;100.00;96527.09;5103467;28;20028;-74
2022/11/23 07:05:08;;;;;;;1999.90;999.90;;;;;;;4.03;100.00;96535.16;5113587;28;20019;-75
2022/11/23 07:07:34;;;;;;;1999.90;999.90;;;;;;;4.05;100.00;96535.66;5102452;28;20063;-75
2022/11/23 07:09:59;;;;;;;1999.90;999.90;;;;;;;4.10;100.00;96541.00;5093109;28;20114;-74
2022/11/23 07:12:25;;;;;;;1999.90;999.90;;;;;;;4.14;100.00;96544.75;5092914;28;20031;-74
2022/11/23 07:14:51;;;;;;;1999.90;999.90;;;;;;;4.15;100.00;96549.09;5081374;28;20392;-75
2022/11/23 07:17:16;;;;;;;1999.90;999.90;;;;;;;4.24;100.00;96552.75;5099084;28;20020;-75
2022/11/23 07:19:41;;;;;;;1999.90;999.90;;;;;;;4.30;100.00;96546.19;5093844;28;20520;-75
2022/11/23 07:22:07;;;;;;;1999.90;999.90;;;;;;;4.29;100.00;96549.97;5112600;28;20476;-76
2022/11/23 07:24:32;;;;;;;1999.90;999.90;;;;;;;4.36;100.00;96557.75;5107566;28;20024;-76
2022/11/23 07:26:57;;;;;;;1999.90;999.90;;;;;;;4.41;100.00;96559.59;5092819;28;20024;-75
2022/11/23 07:29:23;;;;;;;1999.90;999.90;;;;;;;4.44;100.00;96570.66;5092019;28;20104;-76
2022/11/23 07:31:49;;;;;;;1999.90;999.90;;;;;;;4.38;100.00;96552.06;5092735;28;20059;-75
2022/11/23 07:34:14;;;;;;;1999.90;999.90;;;;;;;4.56;100.00;96575.63;5092488;28;20044;-75
2022/11/23 07:36:39;;;;;;;1999.90;999.90;;;;;;;4.62;100.00;96563.63;5092580;28;20029;-75
2022/11/23 07:39:05;;;;;;;1999.90;999.90;;;;;;;4.64;100.00;96569.56;5092436;28;20032;-75
2022/11/23 07:41:30;;;;;;;1999.90;999.90;;;;;;;4.66;100.00;96570.91;5092520;28;20586;-77
2022/11/23 07:43:55;;;;;;;1999.90;999.90;;;;;;;4.72;100.00;96575.16;5092696;28;20456;-75
2022/11/23 07:46:21;;;;;;;1999.90;999.90;;;;;;;4.73;100.00;96581.38;5092458;28;20084;-75
2022/11/23 07:48:46;;;;;;;1999.90;999.90;;;;;;;4.79;100.00;96583.69;5106713;28;20043;-76
2022/11/23 07:51:11;;;;;;;1999.90;999.90;;;;;;;4.84;100.00;96578.22;5096678;28;20449;-76
2022/11/23 07:53:37;;;;;;;1999.90;999.90;;;;;;;4.91;100.00;96588.69;5098285;28;20469;-76
2022/11/23 07:56:02;;;;;;;1999.90;999.90;;;;;;;4.95;100.00;96584.28;5112756;28;20478;-75
2022/11/23 07:58:27;;;;;;;1999.90;999.90;;;;;;;5.11;100.00;96593.81;5112609;28;20472;-75
2022/11/23 08:00:53;;;;;;;1999.90;999.90;;;;;;;5.19;100.00;96590.44;5112529;28;20034;-75
2022/11/23 08:03:19;;;;;;;1999.90;999.90;;;;;;;5.25;100.00;96594.69;5112571;28;20082;-75
2022/11/23 08:05:44;;;;;;;1999.90;999.90;;;;;;;5.50;100.00;96587.22;5109058;28;20027;-74
2022/11/23 08:08:10;;;;;;;1999.90;999.90;;;;;;;5.58;100.00;96581.13;5100703;28;20043;-75
2022/11/23 08:10:36;;;;;;;1999.90;999.90;;;;;;;5.65;100.00;96582.38;5101833;28;20404;-75
2022/11/23 08:13:05;;;;;;;1999.90;999.90;;;;;;;5.75;100.00;96587.63;5099579;28;20103;-75
2022/11/23 08:15:30;;;;;;;1999.90;999.90;;;;;;;5.74;100.00;96593.31;5103085;28;20084;-77
2022/11/23 08:17:57;;;;;;;1999.90;999.90;;;;;;;5.68;100.00;96586.38;5084047;28;20032;-75
2022/11/23 08:20:23;;;;;;;1999.90;999.90;;;;;;;5.84;100.00;96587.72;5100074;28;20113;-74
2022/11/23 08:22:49;;;;;;;1999.90;999.90;;;;;;;5.73;100.00;96591.72;5102619;28;20078;-75
2022/11/23 08:25:14;;;;;;;1999.90;999.90;;;;;;;5.88;100.00;96597.72;5100395;28;20035;-75
2022/11/23 08:27:39;;;;;;;1999.90;999.90;;;;;;;5.94;100.00;96606.56;5101470;28;20024;-74
2022/11/23 08:30:05;;;;;;;1999.90;999.90;;;;;;;5.89;100.00;96598.50;5104762;28;20023;-76
2022/11/23 08:32:31;;;;;;;1999.90;999.90;;;;;;;5.82;100.00;96604.31;5108140;28;20094;-74
2022/11/23 08:34:56;;;;;;;1999.90;999.90;;;;;;;5.69;100.00;96601.56;5101616;28;20472;-74
2022/11/23 08:37:21;;;;;;;1999.90;999.90;;;;;;;5.75;100.00;96603.09;5101542;28;21485;-75
2022/11/23 08:39:47;;;;;;;1999.90;999.90;;;;;;;5.91;100.00;96602.56;5099157;28;20027;-75
2022/11/23 08:42:12;;;;;;;1999.90;999.90;;;;;;;5.99;100.00;96602.94;5101599;28;20027;-74
2022/11/23 08:44:37;;;;;;;1999.90;999.90;;;;;;;5.97;100.00;96605.16;5101358;28;20031;-75
2022/11/23 08:47:03;;;;;;;1999.90;999.90;;;;;;;6.17;100.00;96613.72;5099617;28;20020;-75
2022/11/23 08:49:28;;;;;;;1999.90;999.90;;;;;;;6.34;100.00;96605.00;5100609;28;20468;-75
2022/11/23 08:51:53;;;;;;;1999.90;999.90;;;;;;;6.41;100.00;96613.56;5100824;28;20028;-75
2022/11/23 08:54:19;;;;;;;1999.90;999.90;;;;;;;6.59;100.00;96606.41;5099112;28;20102;-75
2022/11/23 08:56:44;;;;;;;1999.90;999.90;;;;;;;6.45;100.00;96612.63;5100458;28;20128;-74
2022/11/23 08:59:11;;;;;;;1999.90;999.90;;;;;;;6.46;100.00;96608.81;5100567;28;20489;-74
2022/11/23 09:01:36;;;;;;;1999.90;999.90;;;;;;;6.62;100.00;96611.22;5080516;28;20107;-74
2022/11/23 09:04:03;;;;;;;1999.90;999.90;;;;;;;6.78;100.00;96628.81;5099172;28;20016;-73
2022/11/23 09:06:32;;;;;;;1999.90;999.90;;;;;;;7.05;100.00;96620.63;5101826;28;20024;-74
2022/11/23 09:08:57;;;;;;;1999.90;999.90;;;;;;;6.84;100.00;96636.56;5101153;28;20054;-73
2022/11/23 09:11:24;;;;;;;1999.90;999.90;;;;;;;6.93;100.00;96633.94;5100967;28;20024;-73
2022/11/23 09:13:49;;;;;;;1999.90;999.90;;;;;;;7.09;100.00;96632.50;5099823;28;20111;-74
2022/11/23 09:16:15;;;;;;;1999.90;999.90;;;;;;;7.11;100.00;96634.94;5098710;28;20106;-74
2022/11/23 09:18:40;;;;;;;1999.90;999.90;;;;;;;7.14;100.00;96640.53;5101133;28;20153;-74
2022/11/23 09:21:06;;;;;;;1999.90;999.90;;;;;;;7.15;100.00;96641.34;5099416;28;20085;-74
2022/11/23 09:23:31;;;;;;;1999.90;999.90;;;;;;;6.93;100.00;96640.19;5101623;28;20028;-75
2022/11/23 09:26:03;;;;;;;1999.90;999.90;;;;;;;6.96;100.00;96642.28;5101441;28;20085;-75
2022/11/23 09:28:29;;;;;;;1999.90;999.90;;;;;;;6.73;100.00;96646.06;5100895;28;20031;-74
2022/11/23 09:30:55;;;;;;;1999.90;999.90;;;;;;;6.98;100.00;96634.63;5099535;28;20027;-74
2022/11/23 09:33:23;;;;;;;1999.90;999.90;;;;;;;6.96;100.00;96649.63;5080694;28;20465;-75
2022/11/23 09:36:33;;;;;;;1999.90;999.90;;;;;;;7.25;100.00;96647.38;5100609;28;20026;-74
2022/11/23 09:38:58;;;;;;;1999.90;999.90;;;;;;;7.38;100.00;96643.81;5079579;28;20124;-75
2022/11/23 09:41:29;;;;;;;1999.90;999.90;;;;;;;7.22;100.00;96647.97;5081979;28;20471;-75
2022/11/23 09:44:07;;;;;;;1999.90;999.90;;;;;;;7.25;100.00;96657.44;5081116;28;20030;-74
2022/11/23 09:46:46;;;;;;;1999.90;999.90;;;;;;;7.05;100.00;96655.19;5099296;28;20036;-75
2022/11/23 09:49:21;;;;;;;1999.90;999.90;;;;;;;7.31;100.00;96657.03;5098100;28;20142;-75
2022/11/23 09:51:49;;;;;;;1999.90;999.90;;;;;;;7.15;100.00;96665.81;5097629;28;20023;-74
2022/11/23 09:54:31;;;;;;;1999.90;999.90;;;;;;;7.15;100.00;96669.34;5099238;28;20073;-75
2022/11/23 09:56:57;;;;;;;1999.90;999.90;;;;;;;7.22;100.00;96664.31;5082411;28;20035;-75
2022/11/23 09:59:26;;;;;;;1999.90;999.90;;;;;;;7.08;100.00;96668.16;5101043;28;20046;-75
2022/11/23 10:01:52;;;;;;;1999.90;999.90;;;;;;;6.92;100.00;96667.69;5103822;28;20028;-78
2022/11/23 10:04:19;;;;;;;1999.90;999.90;;;;;;;6.88;100.00;96669.38;5097558;28;20019;-75
2022/11/23 10:06:51;;;;;;;1999.90;999.90;;;;;;;6.90;100.00;96669.88;5106315;28;20039;-76
2022/11/23 10:09:37;;;;;;;1999.90;999.90;;;;;;;6.92;100.00;96679.34;5104524;28;20044;-75
2022/11/23 10:12:40;;;;;;;1999.90;999.90;;;;;;;6.83;100.00;96685.78;5101303;28;20055;-75
2022/11/23 10:15:14;;;;;;;1999.90;999.90;;;;;;;6.62;100.00;96676.44;5097519;28;20042;-75
2022/11/23 10:18:04;;;;;;;1999.90;999.90;;;;;;;6.59;100.00;96680.56;5110666;28;20032;-75
2022/11/23 10:20:54;;;;;;;1999.90;999.90;;;;;;;6.45;100.00;96679.75;5105914;28;20121;-75
2022/11/23 10:24:07;;;;;;;1999.90;999.90;;;;;;;6.68;100.00;96680.66;5102408;28;20512;-75
2022/11/23 10:26:38;;;;;;;1999.90;999.90;;;;;;;6.65;100.00;96684.78;5099987;28;20028;-74
2022/11/23 10:29:29;;;;;;;1999.90;999.90;;;;;;;6.41;100.00;96686.88;5099664;28;20027;-75
2022/11/23 10:31:56;;;;;;;1999.90;999.90;;;;;;;6.21;100.00;96681.81;5100108;28;20019;-74
2022/11/23 10:35:03;;;;;;;1999.90;999.90;;;;;;;6.32;100.00;96684.06;5101611;28;20024;-74
2022/11/23 10:37:28;;;;;;;;;;;;;;;6.38;100.00;96687.47;5068076;28;20036;-74
2022/11/23 10:39:53;;;;;;;;;;;;;;;6.33;100.00;96690.28;5093474;28;20349;-74
2022/11/23 10:42:32;;;;;;;1999.90;999.90;;;;;;;6.23;100.00;96694.00;5096023;28;19912;-74
2022/11/23 10:44:59;;;;;;;1999.90;999.90;;;;;;;6.29;100.00;96700.94;5089068;28;20035;-73
2022/11/23 10:47:34;;;;;;;1999.90;999.90;;;;;;;6.21;100.00;96698.09;5089128;28;20469;-74
2022/11/23 10:49:59;;;;;;;1999.90;999.90;;;;;;;6.31;100.00;96708.78;5089831;28;20073;-74
2022/11/23 10:52:28;;;;;;;1999.90;999.90;;;;;;;6.28;100.00;96712.09;5089325;28;20024;-73
2022/11/23 10:54:56;;;;;;;1999.90;999.90;;;;;;;6.34;100.00;96709.00;5089585;28;20503;-74
2022/11/23 10:57:27;;;;;;;1999.90;999.90;;;;;;;6.21;100.00;96714.38;5089453;28;20032;-74